createdAt,value
2022-12-19T00:01:38.179Z,5.92
2022-12-19T00:04:08.791Z,5.61
2022-12-19T00:06:41.909Z,5.80
2022-12-19T00:09:11.627Z,5.80
2022-12-19T00:11:39.946Z,5.34
2022-12-19T00:14:07.775Z,5.57
2022-12-19T00:16:34.672Z,6.10
2022-12-19T00:19:02.180Z,5.56
2022-12-19T00:21:34.769Z,6.09
2022-12-19T00:24:03.719Z,6.55
2022-12-19T00:26:36.900Z,5.84
2022-12-19T00:29:14.106Z,6.32
2022-12-19T00:31:41.119Z,5.75
2022-12-19T00:34:09.203Z,5.71
2022-12-19T00:36:36.440Z,5.67
2022-12-19T00:39:07.785Z,5.95
2022-12-19T00:41:36.385Z,6.09
2022-12-19T00:44:05.794Z,6.76
2022-12-19T00:46:34.806Z,6.06
2022-12-19T00:49:02.110Z,6.46
2022-12-19T00:51:32.577Z,6.57
2022-12-19T00:53:59.508Z,6.43
2022-12-19T00:56:37.960Z,6.35
2022-12-19T00:59:06.924Z,6.33
2022-12-19T01:01:38.203Z,6.43
2022-12-19T01:06:58.888Z,6.73
2022-12-19T01:09:32.991Z,6.60
2022-12-19T01:12:18.417Z,6.49
2022-12-19T01:14:45.080Z,6.65
2022-12-19T01:17:12.541Z,6.57
2022-12-19T01:19:44.028Z,6.92
2022-12-19T01:22:13.161Z,6.97
2022-12-19T01:24:40.204Z,6.98
2022-12-19T01:27:08.135Z,7.12
2022-12-19T01:29:36.686Z,6.67
2022-12-19T01:32:12.585Z,6.95
2022-12-19T01:34:39.143Z,6.97
2022-12-19T01:37:05.708Z,7.30
2022-12-19T01:39:32.261Z,7.15
2022-12-19T01:42:01.426Z,7.52
2022-12-19T01:44:28.434Z,7.64
2022-12-19T01:47:00.347Z,7.74
2022-12-19T01:49:34.370Z,7.09
2022-12-19T01:52:04.881Z,7.42
2022-12-19T01:54:37.142Z,7.19
2022-12-19T01:57:10.573Z,6.50
2022-12-19T01:59:42.308Z,7.25
2022-12-19T02:02:31.442Z,7.02
2022-12-19T02:04:58.068Z,6.69
2022-12-19T02:07:26.205Z,6.77
2022-12-19T02:09:57.364Z,6.43
2022-12-19T02:12:36.521Z,6.67
2022-12-19T02:15:05.393Z,7.25
2022-12-19T02:17:54.971Z,6.98
2022-12-19T02:20:47.992Z,6.79
2022-12-19T02:23:36.119Z,6.89
2022-12-19T02:26:26.827Z,6.68
2022-12-19T02:28:58.800Z,6.52
2022-12-19T02:31:25.419Z,6.41
2022-12-19T02:34:16.381Z,6.43
2022-12-19T02:37:02.492Z,7.23
2022-12-19T02:39:41.242Z,7.14
2022-12-19T02:42:11.192Z,6.55
2022-12-19T02:44:47.266Z,6.47
2022-12-19T02:47:16.741Z,6.60
2022-12-19T02:49:43.306Z,6.81
2022-12-19T02:52:32.919Z,6.75
2022-12-19T02:55:06.214Z,6.99
2022-12-19T02:57:58.224Z,7.00
2022-12-19T03:00:27.951Z,7.10
2022-12-19T03:03:21.993Z,6.85
2022-12-19T03:06:06.517Z,6.99
2022-12-19T03:08:58.088Z,7.24
2022-12-19T03:11:28.420Z,6.85
2022-12-19T03:14:01.834Z,7.01
2022-12-19T03:16:29.111Z,6.82
2022-12-19T03:18:56.811Z,7.10
2022-12-19T03:21:29.334Z,7.16
2022-12-19T03:23:57.709Z,6.78
2022-12-19T03:26:29.047Z,7.15
2022-12-19T03:29:09.112Z,7.11
2022-12-19T03:31:37.929Z,7.02
2022-12-19T03:34:26.601Z,7.14
2022-12-19T03:36:57.367Z,7.24
2022-12-19T03:39:26.316Z,7.37
2022-12-19T03:42:13.089Z,7.12
2022-12-19T03:44:42.479Z,7.15
2022-12-19T03:47:24.433Z,7.50
2022-12-19T03:49:51.761Z,7.68
2022-12-19T03:52:35.724Z,7.87
2022-12-19T03:55:12.284Z,7.75
2022-12-19T03:57:47.872Z,8.17
2022-12-19T04:00:17.439Z,7.36
2022-12-19T04:02:47.745Z,7.64
2022-12-19T04:05:19.326Z,7.61
2022-12-19T04:07:48.036Z,7.68
2022-12-19T04:10:18.420Z,7.67
2022-12-19T04:12:58.284Z,7.85
2022-12-19T04:15:35.015Z,7.99
2022-12-19T04:18:06.581Z,7.80
2022-12-19T04:20:36.807Z,7.43
2022-12-19T04:23:21.340Z,8.40
2022-12-19T04:25:52.310Z,7.94
2022-12-19T04:28:25.495Z,7.85
2022-12-19T04:30:53.843Z,7.73
2022-12-19T04:33:20.606Z,7.87
2022-12-19T04:35:47.238Z,8.05
2022-12-19T04:38:13.947Z,7.74
2022-12-19T04:40:41.684Z,7.91
2022-12-19T04:43:09.343Z,7.99
2022-12-19T04:45:36.725Z,7.80
2022-12-19T04:48:03.949Z,7.96
2022-12-19T04:50:32.812Z,7.85
2022-12-19T04:52:59.627Z,8.07
2022-12-19T04:55:26.678Z,7.88
2022-12-19T04:57:53.241Z,7.71
2022-12-19T05:00:19.925Z,7.89
2022-12-19T05:02:46.671Z,7.68
2022-12-19T05:05:13.392Z,7.90
2022-12-19T05:07:40.623Z,8.26
2022-12-19T05:10:07.860Z,8.02
2022-12-19T05:12:34.472Z,7.76
2022-12-19T05:15:01.673Z,7.79
2022-12-19T05:17:28.234Z,8.08
2022-12-19T05:19:54.798Z,7.57
2022-12-19T05:22:22.000Z,7.49
2022-12-19T05:24:48.547Z,7.76
2022-12-19T05:27:15.146Z,7.74
2022-12-19T05:29:41.858Z,7.43
2022-12-19T05:32:08.539Z,7.93
2022-12-19T05:34:35.178Z,8.28
2022-12-19T05:37:03.452Z,8.22
2022-12-19T05:39:30.429Z,7.96
2022-12-19T05:41:57.028Z,8.21
2022-12-19T05:44:24.624Z,8.14
2022-12-19T05:46:51.680Z,8.11
2022-12-19T05:49:18.463Z,8.36
2022-12-19T05:51:45.338Z,8.44
2022-12-19T05:54:11.901Z,8.81
2022-12-19T05:56:38.461Z,8.49
2022-12-19T05:59:05.119Z,8.29
2022-12-19T06:01:32.605Z,8.72
2022-12-19T06:03:59.209Z,8.63
2022-12-19T06:06:26.870Z,8.31
2022-12-19T06:08:58.344Z,8.58
2022-12-19T06:11:26.861Z,8.97
2022-12-19T06:13:54.065Z,8.99
2022-12-19T06:16:22.595Z,9.20
2022-12-19T06:18:49.322Z,9.29
2022-12-19T06:21:18.489Z,9.04
2022-12-19T06:23:45.830Z,8.65
2022-12-19T06:26:19.125Z,8.85
2022-12-19T06:28:48.084Z,9.24
2022-12-19T06:31:15.045Z,9.21
2022-12-19T06:33:41.717Z,8.90
2022-12-19T06:36:13.660Z,8.84
2022-12-19T06:38:40.473Z,8.88
2022-12-19T06:41:25.982Z,8.85
2022-12-19T06:43:53.844Z,9.26
2022-12-19T06:46:20.855Z,8.76
2022-12-19T06:48:47.853Z,8.76
2022-12-19T06:51:14.517Z,8.63
2022-12-19T06:53:41.100Z,8.68
2022-12-19T06:56:08.342Z,8.93
2022-12-19T06:58:35.046Z,8.42
2022-12-19T07:01:01.826Z,8.74
2022-12-19T07:03:38.011Z,8.43
2022-12-19T07:06:05.687Z,8.42
2022-12-19T07:08:33.270Z,8.38
2022-12-19T07:11:00.111Z,8.60
2022-12-19T07:13:27.400Z,8.35
2022-12-19T07:15:57.442Z,8.18
2022-12-19T07:18:24.062Z,8.45
2022-12-19T07:20:50.735Z,8.13
2022-12-19T07:23:20.373Z,8.30
2022-12-19T07:25:47.014Z,8.42
2022-12-19T07:28:14.582Z,8.27
2022-12-19T07:30:41.259Z,8.55
2022-12-19T07:33:10.947Z,8.65
2022-12-19T07:35:38.494Z,8.81
2022-12-19T07:38:06.688Z,8.39
2022-12-19T07:40:33.797Z,8.14
2022-12-19T07:43:05.683Z,8.37
2022-12-19T07:45:33.132Z,8.82
2022-12-19T07:48:01.522Z,9.19
2022-12-19T07:50:28.939Z,9.04
2022-12-19T07:52:56.978Z,8.66
2022-12-19T07:55:23.615Z,8.86
2022-12-19T07:57:50.784Z,8.85
2022-12-19T08:00:18.473Z,8.99
2022-12-19T08:02:45.893Z,9.04
2022-12-19T08:05:12.656Z,8.75
2022-12-19T08:07:39.719Z,8.78
2022-12-19T08:10:06.984Z,9.34
2022-12-19T08:12:34.281Z,9.54
2022-12-19T08:15:01.339Z,9.10
2022-12-19T08:17:28.283Z,9.22
2022-12-19T08:19:54.860Z,8.75
2022-12-19T08:22:21.439Z,9.02
2022-12-19T08:24:48.146Z,8.59
2022-12-19T08:27:16.530Z,9.01
2022-12-19T08:29:43.063Z,9.07
2022-12-19T08:32:09.643Z,9.79
2022-12-19T08:34:36.193Z,9.19
2022-12-19T08:37:02.914Z,9.50
2022-12-19T08:39:29.468Z,9.44
2022-12-19T08:41:56.529Z,9.61
2022-12-19T08:44:23.201Z,9.43
2022-12-19T08:46:50.641Z,9.38
2022-12-19T08:49:19.937Z,9.33
2022-12-19T08:51:46.828Z,9.02
2022-12-19T08:54:13.375Z,9.09
2022-12-19T08:56:42.848Z,9.84
2022-12-19T08:59:13.714Z,9.61
2022-12-19T09:01:42.828Z,9.81
2022-12-19T09:05:31.364Z,9.13
2022-12-19T09:06:56.526Z,10.27
2022-12-19T09:09:23.100Z,9.94
2022-12-19T09:11:49.775Z,9.74
2022-12-19T09:14:20.972Z,10.14
2022-12-19T09:16:48.601Z,9.65
2022-12-19T09:19:16.380Z,9.29
2022-12-19T09:21:43.292Z,9.57
2022-12-19T09:24:10.610Z,10.32
2022-12-19T09:26:39.258Z,10.39
2022-12-19T09:29:11.017Z,10.47
2022-12-19T09:31:46.929Z,10.33
2022-12-19T09:34:14.029Z,10.14
2022-12-19T09:36:40.907Z,10.31
2022-12-19T09:39:07.786Z,9.94
2022-12-19T09:41:45.046Z,9.81
2022-12-19T09:44:29.994Z,10.11
2022-12-19T09:47:00.898Z,10.38
2022-12-19T09:49:48.145Z,10.26
2022-12-19T09:52:29.762Z,10.19
2022-12-19T09:55:19.951Z,10.27
2022-12-19T09:58:01.590Z,9.96
2022-12-19T10:00:40.195Z,10.10
2022-12-19T10:03:21.945Z,10.38
2022-12-19T10:07:11.069Z,10.56
2022-12-19T10:09:18.925Z,10.29
2022-12-19T10:12:36.579Z,10.43
2022-12-19T10:15:01.844Z,10.47
2022-12-19T10:17:34.423Z,10.42
2022-12-19T10:20:03.623Z,10.17
2022-12-19T10:22:54.248Z,9.90
2022-12-19T10:25:58.759Z,10.23
2022-12-19T10:28:42.983Z,10.98
2022-12-19T10:31:21.447Z,10.72
2022-12-19T10:34:12.990Z,10.31
2022-12-19T10:39:41.213Z,10.37
2022-12-19T10:42:33.236Z,11.39
2022-12-19T10:45:05.745Z,11.38
2022-12-19T10:47:32.320Z,11.44
2022-12-19T10:50:03.875Z,11.60
2022-12-19T10:52:45.954Z,11.23
2022-12-19T10:55:41.313Z,10.49
2022-12-19T10:58:26.411Z,10.67
2022-12-19T11:01:10.158Z,10.79
2022-12-19T11:03:38.807Z,10.99
2022-12-19T11:06:06.402Z,11.07
2022-12-19T11:08:35.682Z,10.97
2022-12-19T11:13:00.324Z,11.37
2022-12-19T11:17:38.234Z,11.61
2022-12-19T11:22:22.755Z,11.95
2022-12-19T11:29:16.069Z,11.67
2022-12-19T11:29:39.513Z,12.15
2022-12-19T11:30:40.968Z,11.66
2022-12-19T11:30:46.605Z,11.87
2022-12-19T11:34:21.410Z,11.86
2022-12-19T11:37:19.266Z,12.09
2022-12-19T11:40:01.229Z,12.11
2022-12-19T11:43:25.463Z,12.46
2022-12-19T11:46:11.384Z,12.60
2022-12-19T11:48:48.004Z,11.57
2022-12-19T11:51:20.927Z,12.24
2022-12-19T11:53:53.206Z,12.73
2022-12-19T11:56:23.295Z,12.85
2022-12-19T11:58:56.609Z,12.63
2022-12-19T12:01:29.265Z,12.78
2022-12-19T12:04:19.645Z,12.78
2022-12-19T12:06:50.837Z,12.82
2022-12-19T12:10:44.424Z,13.15
2022-12-19T12:20:25.298Z,13.21
2022-12-19T12:28:19.519Z,12.63
2022-12-19T12:31:22.093Z,12.65
2022-12-19T12:31:30.963Z,12.64
2022-12-19T12:31:42.780Z,12.69
2022-12-19T12:31:44.728Z,12.95
2022-12-19T12:32:01.912Z,12.71
2022-12-19T12:35:56.946Z,12.92
2022-12-19T12:40:23.655Z,12.77
2022-12-19T12:43:23.063Z,12.72
2022-12-19T12:45:49.759Z,12.74
2022-12-19T12:48:42.951Z,12.66
2022-12-19T12:51:11.005Z,12.95
2022-12-19T12:53:42.771Z,12.31
2022-12-19T12:56:12.417Z,12.86
2022-12-19T12:58:43.369Z,12.53
2022-12-19T13:01:33.023Z,13.26
2022-12-19T13:04:25.769Z,13.79
2022-12-19T13:06:52.328Z,13.32
2022-12-19T13:09:27.804Z,13.70
2022-12-19T13:12:21.205Z,13.09
2022-12-19T13:14:50.447Z,13.59
2022-12-19T13:17:32.291Z,13.59
2022-12-19T13:20:04.675Z,13.98
2022-12-19T13:22:32.287Z,13.78
2022-12-19T13:25:00.705Z,13.77
2022-12-19T13:27:40.716Z,13.97
2022-12-19T13:30:07.998Z,13.36
2022-12-19T13:32:40.483Z,13.25
2022-12-19T13:36:47.768Z,13.34
2022-12-19T13:39:54.779Z,13.11
2022-12-19T13:41:30.723Z,13.57
2022-12-19T13:43:59.850Z,13.74
2022-12-19T13:46:38.393Z,13.61
2022-12-19T13:49:34.375Z,13.48
2022-12-19T13:52:02.952Z,13.89
2022-12-19T13:54:34.725Z,13.84
2022-12-19T13:57:04.210Z,13.72
2022-12-19T13:59:38.905Z,13.57
2022-12-19T14:02:10.852Z,13.79
2022-12-19T14:04:40.443Z,14.08
2022-12-19T14:07:41.321Z,14.03
2022-12-19T14:11:34.297Z,13.80
2022-12-19T14:13:48.868Z,13.61
2022-12-19T14:16:18.658Z,13.16
2022-12-19T14:18:50.227Z,13.39
2022-12-19T14:22:05.227Z,13.49
2022-12-19T14:24:28.644Z,13.47
2022-12-19T14:28:25.853Z,13.60
2022-12-19T14:30:30.533Z,13.35
2022-12-19T14:33:40.605Z,13.83
2022-12-19T14:36:10.095Z,13.42
2022-12-19T14:39:24.522Z,13.45
2022-12-19T14:41:50.875Z,13.78
2022-12-19T14:51:09.061Z,13.51
2022-12-19T14:52:25.699Z,13.34
2022-12-19T14:54:13.815Z,13.64
2022-12-19T14:54:50.381Z,13.68
2022-12-19T14:56:16.821Z,13.60
2022-12-19T14:58:53.139Z,13.75
2022-12-19T15:01:27.782Z,13.74
2022-12-19T15:04:48.046Z,13.62
2022-12-19T15:07:06.813Z,13.93
2022-12-19T15:11:06.498Z,13.95
2022-12-19T15:14:47.964Z,13.65
2022-12-19T15:16:05.837Z,13.66
2022-12-19T15:18:32.483Z,13.92
2022-12-19T15:21:01.730Z,13.99
2022-12-19T15:23:29.398Z,14.11
2022-12-19T15:26:05.113Z,14.28
2022-12-19T15:28:41.295Z,14.69
2022-12-19T15:31:27.487Z,14.46
2022-12-19T15:36:41.235Z,14.56
2022-12-19T15:39:07.847Z,14.42
2022-12-19T15:41:34.674Z,14.59
2022-12-19T15:44:13.630Z,14.54
2022-12-19T15:46:46.628Z,14.76
2022-12-19T15:49:19.835Z,14.28
2022-12-19T15:51:46.724Z,14.82
2022-12-19T15:56:59.815Z,14.35
2022-12-19T15:59:38.026Z,14.62
2022-12-19T16:02:18.219Z,14.57
2022-12-19T16:04:46.597Z,14.86
2022-12-19T16:07:16.117Z,14.80
2022-12-19T16:09:42.827Z,14.39
2022-12-19T16:12:15.382Z,14.01
2022-12-19T16:14:42.500Z,14.17
2022-12-19T16:17:16.915Z,13.67
2022-12-19T16:19:43.668Z,13.63
2022-12-19T16:22:19.590Z,13.99
2022-12-19T16:24:46.844Z,13.78
2022-12-19T16:27:28.940Z,14.12
2022-12-19T16:29:56.969Z,14.00
2022-12-19T16:32:24.600Z,14.37
2022-12-19T16:34:52.313Z,14.23
2022-12-19T16:37:18.948Z,14.31
2022-12-19T16:39:45.928Z,13.70
2022-12-19T16:42:17.598Z,13.56
2022-12-19T16:44:48.041Z,14.03
2022-12-19T16:47:17.577Z,13.69
2022-12-19T16:49:44.973Z,13.99
2022-12-19T16:52:11.845Z,14.05
2022-12-19T16:54:38.401Z,13.59
2022-12-19T16:57:15.751Z,13.76
2022-12-19T16:59:42.359Z,14.04
2022-12-19T17:02:37.679Z,14.27
2022-12-19T17:05:04.715Z,14.19
2022-12-19T17:07:32.446Z,14.23
2022-12-19T17:09:59.034Z,14.02
2022-12-19T17:12:27.071Z,14.01
2022-12-19T17:14:54.030Z,14.08
2022-12-19T17:17:20.656Z,14.04
2022-12-19T17:19:47.382Z,14.22
2022-12-19T17:22:16.349Z,14.47
2022-12-19T17:24:47.903Z,14.32
2022-12-19T17:27:17.321Z,14.45
2022-12-19T17:29:44.401Z,14.53
2022-12-19T17:32:23.239Z,14.00
2022-12-19T17:34:52.725Z,14.46
2022-12-19T17:37:19.795Z,14.26
2022-12-19T17:39:48.349Z,14.09
2022-12-19T17:42:21.552Z,13.44
2022-12-19T17:44:48.134Z,13.77
2022-12-19T17:47:16.305Z,13.50
2022-12-19T17:49:43.191Z,13.92
2022-12-19T17:52:15.187Z,14.39
2022-12-19T17:54:42.392Z,14.51
2022-12-19T17:57:13.680Z,14.65
2022-12-19T17:59:41.729Z,14.21
2022-12-19T18:02:22.932Z,14.38
2022-12-19T18:04:51.080Z,14.69
2022-12-19T18:07:19.236Z,15.30
2022-12-19T18:09:46.809Z,15.24
2022-12-19T18:12:14.023Z,15.64
2022-12-19T18:14:40.654Z,15.42
2022-12-19T18:17:07.458Z,14.68
2022-12-19T18:19:34.655Z,14.56
2022-12-19T18:22:01.277Z,14.12
2022-12-19T18:24:28.085Z,13.89
2022-12-19T18:26:55.873Z,13.88
2022-12-19T18:29:22.813Z,13.83
2022-12-19T18:31:51.438Z,14.12
2022-12-19T18:34:23.979Z,14.46
2022-12-19T18:36:51.681Z,13.86
2022-12-19T18:39:24.148Z,14.62
2022-12-19T18:41:51.381Z,13.80
2022-12-19T18:44:18.764Z,13.65
2022-12-19T18:46:48.657Z,13.87
2022-12-19T18:49:16.748Z,13.47
2022-12-19T18:51:44.629Z,13.77
2022-12-19T18:54:17.557Z,13.70
2022-12-19T18:56:44.974Z,14.26
2022-12-19T18:59:12.059Z,14.15
2022-12-19T19:01:46.173Z,13.80
2022-12-19T19:04:16.781Z,13.53
2022-12-19T19:06:50.396Z,14.10
2022-12-19T19:09:20.251Z,13.72
2022-12-19T19:12:18.939Z,13.51
2022-12-19T19:14:45.568Z,13.90
2022-12-19T19:17:23.471Z,13.46
2022-12-19T19:19:50.087Z,13.73
2022-12-19T19:22:17.380Z,13.44
2022-12-19T19:24:43.948Z,13.87
2022-12-19T19:27:10.731Z,14.09
2022-12-19T19:29:37.301Z,13.75
2022-12-19T19:32:03.931Z,13.89
2022-12-19T19:34:35.043Z,13.65
2022-12-19T19:37:04.804Z,13.66
2022-12-19T19:39:34.200Z,13.86
2022-12-19T19:42:01.450Z,13.95
2022-12-19T19:44:28.545Z,13.96
2022-12-19T19:46:55.400Z,13.89
2022-12-19T19:49:23.369Z,14.02
2022-12-19T19:51:52.358Z,14.02
2022-12-19T19:54:22.582Z,14.04
2022-12-19T19:56:49.122Z,13.29
2022-12-19T19:59:15.963Z,13.57
2022-12-19T20:01:43.198Z,13.18
2022-12-19T20:04:10.217Z,13.35
2022-12-19T20:06:37.015Z,13.12
2022-12-19T20:09:04.416Z,13.33
2022-12-19T20:11:31.236Z,13.71
2022-12-19T20:13:57.758Z,13.66
2022-12-19T20:16:25.305Z,13.56
2022-12-19T20:18:53.257Z,14.02
2022-12-19T20:21:20.750Z,13.46
2022-12-19T20:23:48.006Z,13.74
2022-12-19T20:26:16.264Z,13.85
2022-12-19T20:28:48.808Z,13.87
2022-12-19T20:31:23.233Z,13.97
2022-12-19T20:33:53.016Z,14.21
2022-12-19T20:36:20.437Z,14.24
2022-12-19T20:38:48.450Z,14.43
2022-12-19T20:41:16.131Z,14.02
2022-12-19T20:43:42.931Z,14.22
2022-12-19T20:46:12.336Z,13.91
2022-12-19T20:48:39.637Z,14.57
2022-12-19T20:51:07.481Z,14.48
2022-12-19T20:53:36.409Z,14.52
2022-12-19T20:56:04.332Z,14.79
2022-12-19T20:58:33.598Z,14.69
2022-12-19T21:01:24.099Z,14.76
2022-12-19T21:03:51.721Z,14.81
2022-12-19T21:06:20.369Z,14.91
2022-12-19T21:08:47.676Z,14.62
2022-12-19T21:11:15.526Z,14.97
2022-12-19T21:13:43.686Z,14.56
2022-12-19T21:16:13.982Z,14.86
2022-12-19T21:18:43.500Z,14.71
2022-12-19T21:21:15.031Z,14.91
2022-12-19T21:23:42.765Z,14.70
2022-12-19T21:26:10.726Z,14.18
2022-12-19T21:28:38.011Z,13.88
2022-12-19T21:31:15.177Z,13.98
2022-12-19T21:33:42.188Z,14.19
2022-12-19T21:36:12.193Z,13.90
2022-12-19T21:38:39.430Z,14.33
2022-12-19T21:41:07.576Z,14.18
2022-12-19T21:43:37.097Z,14.24
2022-12-19T21:46:15.087Z,14.27
2022-12-19T21:48:45.919Z,14.42
2022-12-19T21:51:14.478Z,14.70
2022-12-19T21:53:41.288Z,14.79
2022-12-19T21:56:18.437Z,14.55
2022-12-19T21:58:45.747Z,14.08
2022-12-19T22:01:15.664Z,14.56
2022-12-19T22:03:43.123Z,14.78
2022-12-19T22:06:27.790Z,14.50
2022-12-19T22:08:55.247Z,14.85
2022-12-19T22:11:22.330Z,14.80
2022-12-19T22:13:49.897Z,14.62
2022-12-19T22:16:17.476Z,15.18
2022-12-19T22:18:44.664Z,15.39
2022-12-19T22:21:15.824Z,15.33
2022-12-19T22:23:42.903Z,15.36
2022-12-19T22:26:14.207Z,15.46
2022-12-19T22:28:43.528Z,15.59
2022-12-19T22:31:20.097Z,15.71
2022-12-19T22:33:48.509Z,15.88
2022-12-19T22:36:18.359Z,15.54
2022-12-19T22:38:49.556Z,15.90
2022-12-19T22:41:18.759Z,15.72
2022-12-19T22:43:46.236Z,15.33
2022-12-19T22:46:21.929Z,15.05
2022-12-19T22:48:50.263Z,15.09
2022-12-19T22:51:19.486Z,14.78
2022-12-19T22:53:47.295Z,15.01
2022-12-19T22:56:19.823Z,15.24
2022-12-19T22:58:48.677Z,15.04
2022-12-19T23:01:18.872Z,15.15
2022-12-19T23:03:48.167Z,15.40
2022-12-19T23:06:16.616Z,15.30
2022-12-19T23:08:43.884Z,15.10
2022-12-19T23:11:14.017Z,14.57
2022-12-19T23:13:41.472Z,14.15
2022-12-19T23:16:08.821Z,14.28
2022-12-19T23:18:35.841Z,14.40
2022-12-19T23:21:09.117Z,14.30
2022-12-19T23:23:41.954Z,13.90
2022-12-19T23:26:16.798Z,14.19
2022-12-19T23:29:08.054Z,14.24
2022-12-19T23:31:38.973Z,14.68
2022-12-19T23:34:05.987Z,14.20
2022-12-19T23:39:19.491Z,14.56
2022-12-19T23:41:46.123Z,14.75
2022-12-19T23:44:12.730Z,14.74
2022-12-19T23:46:40.121Z,14.93
2022-12-19T23:49:07.573Z,14.53
2022-12-19T23:51:34.690Z,14.51
2022-12-19T23:54:01.267Z,14.35
2022-12-19T23:56:31.352Z,14.41
2022-12-19T23:58:58.659Z,14.56
